Time;durP1;ratioP1;P1;durP2;ratioP2;P2;SDS_P1;SDS_P2;PMS_P1;PMS_P2;Temp;Humidity;BMP_temperature;BMP_pressure;BME280_temperature;BME280_humidity;BME280_pressure;Samples;Min_cycle;Max_cycle;Signal;HPM_P1;HPM_P2
2022/10/02 00:00:26;;;;;;;4.23;1.93;;;12.50;99.90;;;;;;4919020;28;20810;-88
2022/10/02 00:03:01;;;;;;;4.40;1.93;;;12.60;99.90;;;;;;4920515;28;20450;-88
2022/10/02 00:05:33;;;;;;;3.57;2.37;;;12.60;99.90;;;;;;4937077;28;20328;-87
2022/10/02 00:08:08;;;;;;;5.07;1.80;;;12.60;99.90;;;;;;4922095;28;20435;-88
2022/10/02 00:10:43;;;;;;;5.40;2.13;;;12.70;99.90;;;;;;4922663;28;20549;-89
2022/10/02 00:13:16;;;;;;;4.13;2.13;;;12.60;99.90;;;;;;4925442;28;20501;-89
2022/10/02 00:15:43;;;;;;;4.03;2.17;;;12.60;99.90;;;;;;4951221;28;20435;-89
2022/10/02 00:18:13;;;;;;;2.73;1.83;;;12.60;99.90;;;;;;4931273;28;20438;-88
2022/10/02 00:21:04;;;;;;;4.07;2.03;;;12.60;99.90;;;;;;4923565;28;20533;-88
2022/10/02 00:23:36;;;;;;;3.77;2.33;;;12.60;99.90;;;;;;4913166;28;20446;-88
2022/10/02 00:26:17;;;;;;;5.97;2.20;;;12.60;99.90;;;;;;4917187;28;20442;-89
2022/10/02 00:29:30;;;;;;;6.00;2.00;;;12.60;99.90;;;;;;4933636;28;20615;-91
2022/10/02 00:32:17;;;;;;;3.47;1.70;;;12.60;99.90;;;;;;4912676;28;20451;-87
2022/10/02 00:35:07;;;;;;;3.40;1.90;;;12.60;99.90;;;;;;4940497;28;20769;-87
2022/10/02 00:38:07;;;;;;;4.20;2.00;;;12.50;99.90;;;;;;4929128;28;20495;-89
2022/10/02 00:41:03;;;;;;;3.97;2.10;;;12.50;99.90;;;;;;4901287;28;20451;-90
2022/10/02 00:43:29;;;;;;;2.80;1.80;;;12.50;99.90;;;;;;4941261;28;21124;-90
2022/10/02 00:46:29;;;;;;;3.33;1.90;;;12.50;99.90;;;;;;4939148;28;20505;-89
2022/10/02 00:49:10;;;;;;;2.10;1.80;;;12.50;99.90;;;;;;4911517;28;20454;-89
2022/10/02 00:51:55;;;;;;;1.87;1.53;;;12.50;99.90;;;;;;4933186;28;20454;-90
2022/10/02 00:54:53;;;;;;;1.90;1.80;;;12.50;99.90;;;;;;4926165;28;20806;-90
2022/10/02 00:57:44;;;;;;;3.30;2.13;;;12.50;99.90;;;;;;4931825;28;20501;-91
2022/10/02 01:00:11;;;;;;;2.57;1.80;;;12.50;99.90;;;;;;4939700;28;20438;-90
2022/10/02 01:03:15;;;;;;;3.50;2.27;;;12.50;99.90;;;;;;4923510;28;20466;-90
2022/10/02 01:05:40;;;;;;;4.40;2.30;;;12.50;99.90;;;;;;4921400;28;20493;-91
2022/10/02 01:08:07;;;;;;;3.43;2.07;;;12.50;99.90;;;;;;4931191;28;20504;-90
2022/10/02 01:10:36;;;;;;;2.20;2.00;;;12.50;99.90;;;;;;4920449;28;20285;-90
2022/10/02 01:13:01;;;;;;;4.47;2.40;;;12.40;99.90;;;;;;4933902;28;20442;-90
2022/10/02 01:15:33;;;;;;;3.00;2.10;;;12.40;99.90;;;;;;4926775;28;20877;-90
2022/10/02 01:18:01;;;;;;;4.97;2.00;;;12.40;99.90;;;;;;4936654;28;20211;-90
2022/10/02 01:20:34;;;;;;;3.90;1.97;;;12.40;99.90;;;;;;4925792;28;20450;-90
2022/10/02 01:23:22;;;;;;;3.30;1.77;;;12.50;99.90;;;;;;4922927;28;20477;-89
2022/10/02 01:25:50;;;;;;;2.33;1.70;;;12.40;99.90;;;;;;4926402;28;20489;-90
2022/10/02 01:28:16;;;;;;;3.80;1.97;;;12.50;99.90;;;;;;4920004;28;20445;-88
2022/10/02 01:30:46;;;;;;;2.57;1.57;;;12.50;99.90;;;;;;4921037;28;20451;-89
2022/10/02 01:33:15;;;;;;;2.53;1.40;;;12.50;99.90;;;;;;4924396;28;20443;-90
2022/10/02 01:35:41;;;;;;;3.20;1.43;;;12.50;99.90;;;;;;4942557;28;20551;-90
2022/10/02 01:38:17;;;;;;;1.40;1.30;;;12.60;99.90;;;;;;4926542;28;20457;-89
2022/10/02 01:40:43;;;;;;;2.20;1.83;;;12.50;99.90;;;;;;4936450;28;20458;-90
2022/10/02 01:43:16;;;;;;;5.60;1.90;;;12.60;99.90;;;;;;4925680;28;20545;-88
2022/10/02 01:45:48;;;;;;;2.83;1.70;;;12.60;99.90;;;;;;4926377;28;20477;-88
2022/10/02 01:48:39;;;;;;;4.00;1.80;;;12.60;99.90;;;;;;4939726;28;20521;-88
2022/10/02 01:51:43;;;;;;;3.50;1.80;;;12.70;99.90;;;;;;4919029;28;20446;-89
2022/10/02 01:54:28;;;;;;;4.57;2.30;;;12.80;99.90;;;;;;4919061;28;20525;-90
2022/10/02 01:57:12;;;;;;;2.70;1.50;;;12.80;99.90;;;;;;4916175;28;20446;-88
2022/10/02 02:00:06;;;;;;;2.40;1.47;;;12.70;99.90;;;;;;4943146;28;20443;-87
2022/10/02 02:03:06;;;;;;;6.93;2.10;;;12.70;99.90;;;;;;4919418;28;20486;-87
2022/10/02 02:05:59;;;;;;;7.23;1.80;;;12.70;99.90;;;;;;4932617;28;20574;-88
2022/10/02 02:08:45;;;;;;;7.17;1.60;;;12.70;99.90;;;;;;4934742;28;20501;-88
2022/10/02 02:11:21;;;;;;;2.80;1.90;;;12.70;99.90;;;;;;4915640;28;20430;-88
2022/10/02 02:13:59;;;;;;;2.80;1.70;;;12.60;99.90;;;;;;4915161;28;20450;-88
2022/10/02 02:16:30;;;;;;;1.83;1.50;;;12.70;99.90;;;;;;4908757;28;20525;-88
2022/10/02 02:19:20;;;;;;;4.30;2.00;;;12.70;99.90;;;;;;4930108;28;20443;-89
2022/10/02 02:21:58;;;;;;;7.67;2.30;;;12.70;99.90;;;;;;4916355;28;21721;-90
2022/10/02 02:24:31;;;;;;;2.87;2.00;;;12.60;99.90;;;;;;4929987;28;20615;-91
2022/10/02 02:27:00;;;;;;;2.10;1.80;;;12.60;99.90;;;;;;4924385;28;20894;-90
2022/10/02 02:29:31;;;;;;;4.57;2.10;;;12.60;99.90;;;;;;4921515;28;20448;-89
2022/10/02 02:31:59;;;;;;;3.93;1.90;;;12.60;99.90;;;;;;4921958;28;20451;-89
2022/10/02 02:34:33;;;;;;;4.47;2.67;;;12.60;99.90;;;;;;4933626;28;20450;-88
2022/10/02 02:37:12;;;;;;;5.37;1.50;;;12.70;99.90;;;;;;4927964;28;20961;-88
2022/10/02 02:39:49;;;;;;;6.10;1.97;;;12.70;99.90;;;;;;4944707;28;21158;-90
2022/10/02 02:42:21;;;;;;;3.47;1.90;;;12.70;99.90;;;;;;4934637;28;20446;-90
2022/10/02 02:45:11;;;;;;;6.27;2.50;;;12.70;99.90;;;;;;4949393;28;20494;-90
2022/10/02 02:48:04;;;;;;;3.67;1.90;;;12.80;99.90;;;;;;4936583;28;20809;-90
2022/10/02 02:50:48;;;;;;;2.67;1.90;;;12.80;99.90;;;;;;4932872;28;20450;-90
2022/10/02 02:53:20;;;;;;;3.33;1.87;;;12.80;99.90;;;;;;4936022;28;20436;-90
2022/10/02 02:55:48;;;;;;;4.20;2.33;;;12.80;99.90;;;;;;4933327;28;20454;-90
2022/10/02 02:58:23;;;;;;;3.20;2.07;;;12.80;99.90;;;;;;4944347;28;20447;-90
2022/10/02 03:00:48;;;;;;;3.10;1.77;;;12.70;99.90;;;;;;4948387;28;20439;-89
2022/10/02 03:03:17;;;;;;;2.83;1.50;;;12.80;99.90;;;;;;4928741;28;20984;-88
2022/10/02 03:05:47;;;;;;;3.93;1.93;;;12.80;99.90;;;;;;4931624;28;20230;-90
2022/10/02 03:08:25;;;;;;;4.97;2.20;;;12.80;99.90;;;;;;4949270;28;20522;-89
2022/10/02 03:11:05;;;;;;;4.67;1.93;;;12.80;99.90;;;;;;4927185;28;20454;-89
2022/10/02 03:13:49;;;;;;;4.00;2.10;;;12.70;99.90;;;;;;4928502;28;20497;-89
2022/10/02 03:16:21;;;;;;;3.60;1.80;;;12.70;99.90;;;;;;4943426;28;20439;-90
2022/10/02 03:19:11;;;;;;;4.60;2.40;;;12.70;99.90;;;;;;4937187;28;20442;-90
2022/10/02 03:21:53;;;;;;;2.83;2.17;;;12.70;99.90;;;;;;4933636;28;20444;-89
2022/10/02 03:24:30;;;;;;;3.40;1.93;;;12.70;99.90;;;;;;4928234;28;21050;-89
2022/10/02 03:27:05;;;;;;;5.03;2.23;;;12.70;99.90;;;;;;4944890;28;20458;-89
2022/10/02 03:29:39;;;;;;;4.90;1.93;;;12.70;99.90;;;;;;4933892;28;20451;-88
2022/10/02 03:32:07;;;;;;;3.93;1.80;;;12.70;99.90;;;;;;4929584;28;20445;-89
2022/10/02 03:34:34;;;;;;;3.60;1.80;;;12.70;99.90;;;;;;4920601;28;20812;-90
2022/10/02 03:37:01;;;;;;;3.77;1.97;;;12.70;99.90;;;;;;4914209;28;20778;-90
2022/10/02 03:39:26;;;;;;;4.53;2.30;;;12.70;99.90;;;;;;4918733;28;20455;-89
2022/10/02 03:41:53;;;;;;;4.30;2.30;;;12.60;99.90;;;;;;4922031;28;20493;-88
2022/10/02 03:44:18;;;;;;;4.23;2.27;;;12.70;99.90;;;;;;4923286;28;20274;-86
2022/10/02 03:46:44;;;;;;;2.90;2.20;;;12.70;99.90;;;;;;4915954;28;20447;-88
2022/10/02 03:49:10;;;;;;;5.47;2.00;;;12.70;99.90;;;;;;4930034;28;20201;-87
2022/10/02 03:51:35;;;;;;;5.13;1.90;;;12.60;99.90;;;;;;4913275;28;20193;-88
2022/10/02 03:54:01;;;;;;;3.83;2.00;;;12.70;99.90;;;;;;4920544;28;20190;-88
2022/10/02 03:56:42;;;;;;;5.83;2.37;;;12.70;99.90;;;;;;4921935;28;20277;-89
2022/10/02 03:59:16;;;;;;;2.17;2.00;;;12.70;99.90;;;;;;4925491;28;20647;-88
2022/10/02 04:01:47;;;;;;;4.40;2.27;;;12.70;99.90;;;;;;4914804;28;20481;-89
2022/10/02 04:04:20;;;;;;;4.90;2.00;;;12.70;99.90;;;;;;4926171;28;20481;-90
2022/10/02 04:07:00;;;;;;;5.67;2.00;;;12.70;99.90;;;;;;4912540;28;20447;-87
2022/10/02 04:09:38;;;;;;;4.60;1.87;;;12.70;99.90;;;;;;4913468;28;20884;-89
2022/10/02 04:12:15;;;;;;;3.73;1.90;;;12.70;99.90;;;;;;4932711;28;20450;-89
2022/10/02 04:14:56;;;;;;;6.50;2.03;;;12.70;99.90;;;;;;4922418;28;20615;-90
2022/10/02 04:17:43;;;;;;;3.80;2.00;;;12.70;99.90;;;;;;4918370;28;21055;-90
2022/10/02 04:20:34;;;;;;;3.97;2.00;;;12.70;99.90;;;;;;4935091;28;20456;-90
2022/10/02 04:23:10;;;;;;;3.43;2.23;;;12.70;99.90;;;;;;4905382;28;20811;-91
2022/10/02 04:25:40;;;;;;;2.03;1.70;;;12.70;99.90;;;;;;4922091;28;20482;-91
2022/10/02 04:28:13;;;;;;;5.23;1.90;;;12.70;99.90;;;;;;4933665;28;20442;-91
2022/10/02 04:30:38;;;;;;;4.57;2.30;;;12.70;99.90;;;;;;4916011;28;20463;-90
2022/10/02 04:33:13;;;;;;;2.47;2.00;;;12.80;99.90;;;;;;4917761;28;20443;-90
2022/10/02 04:36:07;;;;;;;3.90;1.90;;;12.80;99.90;;;;;;4928511;28;20191;-90
2022/10/02 04:39:15;;;;;;;4.43;2.00;;;12.80;99.90;;;;;;4918348;28;20447;-91
2022/10/02 04:41:46;;;;;;;6.23;2.10;;;12.70;99.90;;;;;;4931960;28;20447;-89
2022/10/02 04:44:18;;;;;;;2.20;1.67;;;12.80;99.90;;;;;;4937857;28;20673;-89
2022/10/02 04:47:01;;;;;;;3.70;1.87;;;12.80;99.90;;;;;;4917701;28;20521;-88
2022/10/02 04:49:45;;;;;;;4.63;2.03;;;12.70;99.90;;;;;;4930796;28;20510;-90
2022/10/02 04:52:30;;;;;;;5.47;2.30;;;12.70;99.90;;;;;;4909595;28;20445;-90
2022/10/02 04:55:14;;;;;;;3.27;2.03;;;12.70;99.90;;;;;;4915013;28;20454;-90
2022/10/02 04:58:18;;;;;;;7.90;2.00;;;12.80;99.90;;;;;;4936007;28;20457;-89
2022/10/02 05:01:12;;;;;;;2.10;1.83;;;12.80;99.90;;;;;;4924058;28;20470;-90
2022/10/02 05:04:00;;;;;;;3.03;2.20;;;12.70;99.90;;;;;;4913972;28;20451;-89
2022/10/02 05:06:55;;;;;;;3.30;1.70;;;12.80;99.90;;;;;;4913257;28;20550;-91
2022/10/02 05:09:28;;;;;;;3.50;1.80;;;12.80;99.90;;;;;;4916848;28;20450;-90
2022/10/02 05:12:12;;;;;;;4.53;2.10;;;12.80;99.90;;;;;;4928762;28;20455;-90
2022/10/02 05:14:58;;;;;;;4.10;1.70;;;12.80;99.90;;;;;;4927968;28;20490;-90
2022/10/02 05:17:23;;;;;;;3.20;1.90;;;12.70;99.90;;;;;;4937621;28;20451;-91
2022/10/02 05:20:18;;;;;;;3.00;1.90;;;12.80;99.90;;;;;;4928376;28;20447;-90
2022/10/02 05:23:02;;;;;;;3.60;1.80;;;12.70;99.90;;;;;;4918506;28;20197;-90
2022/10/02 05:25:59;;;;;;;3.67;1.50;;;12.70;99.90;;;;;;4937063;28;20529;-89
2022/10/02 05:28:57;;;;;;;4.10;1.57;;;12.70;99.90;;;;;;4934890;28;20591;-91
2022/10/02 05:31:47;;;;;;;7.47;2.10;;;12.80;99.90;;;;;;4921959;28;20778;-91
2022/10/02 05:34:43;;;;;;;3.50;1.80;;;12.80;99.90;;;;;;4935347;28;20459;-91
2022/10/02 05:37:47;;;;;;;2.37;1.87;;;12.80;99.90;;;;;;4919915;28;20852;-90
2022/10/02 05:40:24;;;;;;;4.00;2.33;;;12.80;99.90;;;;;;4913532;28;20455;-90
2022/10/02 05:42:55;;;;;;;3.27;2.30;;;12.90;99.90;;;;;;4936591;28;20502;-90
2022/10/02 05:45:30;;;;;;;4.50;2.00;;;12.80;99.90;;;;;;4917604;28;20510;-89
2022/10/02 05:48:06;;;;;;;7.33;2.67;;;12.80;99.90;;;;;;4917907;28;21634;-90
2022/10/02 05:50:37;;;;;;;3.40;2.07;;;12.80;99.90;;;;;;4932380;28;20442;-89
2022/10/02 05:53:15;;;;;;;7.03;2.50;;;12.90;99.90;;;;;;4918911;28;20451;-89
2022/10/02 05:55:57;;;;;;;3.40;1.93;;;12.90;99.90;;;;;;4919809;28;20454;-89
2022/10/02 05:58:33;;;;;;;5.73;2.20;;;12.90;99.90;;;;;;4915279;28;20450;-90
2022/10/02 06:01:14;;;;;;;3.97;2.40;;;12.90;99.90;;;;;;4917925;28;20537;-88
2022/10/02 06:04:10;;;;;;;3.27;1.97;;;12.90;99.90;;;;;;4905803;28;20443;-89
2022/10/02 06:06:40;;;;;;;6.23;3.10;;;12.90;99.90;;;;;;4897476;28;20476;-88
2022/10/02 06:09:18;;;;;;;3.57;2.40;;;13.00;99.90;;;;;;4936777;28;20510;-89
2022/10/02 06:11:51;;;;;;;3.83;3.43;;;13.00;99.90;;;;;;4930131;28;20435;-92
2022/10/02 06:14:41;;;;;;;4.60;3.60;;;13.00;99.90;;;;;;4920033;28;20450;-89
2022/10/02 06:17:16;;;;;;;6.63;3.77;;;13.00;99.90;;;;;;4931819;28;20452;-89
2022/10/02 06:20:11;;;;;;;5.77;4.00;;;13.00;99.90;;;;;;4920236;28;20447;-90
2022/10/02 06:22:46;;;;;;;4.70;3.23;;;13.00;99.90;;;;;;4914960;28;20443;-89
2022/10/02 06:25:31;;;;;;;5.63;2.60;;;13.00;99.90;;;;;;4933209;28;21857;-90
2022/10/02 06:28:00;;;;;;;3.50;2.20;;;13.10;99.90;;;;;;4928231;28;20849;-87
2022/10/02 06:30:29;;;;;;;5.40;2.30;;;13.00;99.90;;;;;;4921971;28;20447;-90
2022/10/02 06:33:08;;;;;;;4.43;2.10;;;13.10;99.90;;;;;;4924312;28;20478;-86
2022/10/02 06:35:53;;;;;;;4.83;2.00;;;13.10;99.90;;;;;;4919808;28;20446;-86
2022/10/02 06:38:27;;;;;;;7.30;1.70;;;13.20;99.90;;;;;;4941292;28;20458;-90
2022/10/02 06:41:13;;;;;;;4.67;2.17;;;13.10;99.90;;;;;;4939018;28;20866;-95
2022/10/02 06:43:44;;;;;;;7.37;2.17;;;13.10;99.90;;;;;;4931302;28;21110;-95
2022/10/02 06:46:30;;;;;;;6.60;3.50;;;13.10;99.90;;;;;;4936626;28;20483;-95
2022/10/02 06:49:21;;;;;;;6.20;5.20;;;13.10;99.90;;;;;;4929907;28;20462;-96
2022/10/02 06:52:38;;;;;;;7.50;3.40;;;13.20;99.90;;;;;;4929512;28;20447;-97
2022/10/02 06:55:12;;;;;;;6.30;3.30;;;13.30;99.90;;;;;;4901406;28;20439;-93
2022/10/02 07:00:22;;;;;;;2.90;2.20;;;13.40;99.90;;;;;;5409149;23;20501;-93
2022/10/02 07:03:15;;;;;;;3.90;2.73;;;13.50;99.90;;;;;;4942183;28;20452;-96
2022/10/02 07:06:22;;;;;;;4.67;2.47;;;13.60;99.90;;;;;;4937009;28;20353;-90
2022/10/02 07:09:28;;;;;;;10.60;9.27;;;13.70;99.90;;;;;;4942029;28;20451;-89
2022/10/02 07:12:39;;;;;;;6.90;5.57;;;13.70;99.90;;;;;;4933058;28;20614;-93
2022/10/02 07:15:24;;;;;;;5.20;3.40;;;13.80;99.90;;;;;;4941333;28;20457;-87
2022/10/02 07:18:21;;;;;;;5.00;3.57;;;13.90;99.90;;;;;;4938798;28;20756;-87
2022/10/02 07:21:09;;;;;;;3.57;2.90;;;13.80;99.90;;;;;;4927618;28;20464;-88
2022/10/02 07:24:36;;;;;;;8.60;3.20;;;13.80;99.90;;;;;;4937444;28;20572;-88
2022/10/02 07:27:19;;;;;;;6.27;3.43;;;13.80;99.90;;;;;;4887200;29;20460;-90
2022/10/02 07:30:00;;;;;;;6.83;4.47;;;13.80;99.90;;;;;;4926591;28;20543;-89
2022/10/02 07:32:56;;;;;;;5.60;4.33;;;13.90;99.90;;;;;;4934481;28;20443;-90
2022/10/02 07:36:06;;;;;;;8.37;4.80;;;13.90;99.90;;;;;;4910684;28;22362;-91
2022/10/02 07:38:47;;;;;;;4.13;3.23;;;13.90;99.90;;;;;;4934334;28;20556;-90
2022/10/02 07:41:54;;;;;;;6.00;3.27;;;13.80;99.90;;;;;;4954316;28;20449;-90
2022/10/02 07:45:10;;;;;;;6.67;3.07;;;13.70;99.90;;;;;;4929168;28;20913;-89
2022/10/02 07:48:30;;;;;;;4.10;2.87;;;13.60;99.90;;;;;;4891270;28;20448;-88
2022/10/02 07:51:45;;;;;;;4.30;3.03;;;13.70;99.90;;;;;;4839115;29;20506;-89
2022/10/02 07:54:07;;;;;;;5.53;3.30;;;13.70;99.90;;;;;;4930145;28;20859;-88
2022/10/02 07:56:35;;;;;;;6.03;2.17;;;13.70;99.90;;;;;;4932265;28;20541;-90
2022/10/02 07:59:09;;;;;;;4.67;2.00;;;13.80;99.90;;;;;;4933013;28;20472;-89
2022/10/02 08:01:44;;;;;;;3.40;2.17;;;13.90;99.90;;;;;;4926159;28;20465;-89
2022/10/02 08:04:32;;;;;;;3.33;2.10;;;14.00;99.90;;;;;;4944574;28;20477;-89
2022/10/02 08:07:03;;;;;;;2.20;2.00;;;14.00;99.90;;;;;;4936388;28;20453;-88
2022/10/02 08:09:42;;;;;;;6.67;2.73;;;14.00;99.90;;;;;;4933961;28;20470;-89
2022/10/02 08:12:30;;;;;;;172.13;156.67;;;13.90;99.90;;;;;;4932398;28;20449;-87
2022/10/02 08:15:11;;;;;;;5.40;4.90;;;13.90;99.90;;;;;;4930480;28;20509;-87
2022/10/02 08:17:54;;;;;;;5.60;5.10;;;14.10;99.90;;;;;;4957674;28;20450;-87
2022/10/02 08:20:26;;;;;;;6.90;4.70;;;14.30;99.90;;;;;;4941258;28;20445;-87
2022/10/02 08:23:02;;;;;;;6.53;3.67;;;14.50;99.90;;;;;;4951563;28;20446;-88
2022/10/02 08:25:45;;;;;;;5.57;3.57;;;14.60;99.90;;;;;;4942936;28;20476;-87
2022/10/02 08:28:15;;;;;;;4.53;3.20;;;14.60;99.90;;;;;;4939840;28;20629;-87
2022/10/02 08:30:41;;;;;;;5.37;3.30;;;14.60;99.90;;;;;;4945707;28;20438;-88
2022/10/02 08:33:20;;;;;;;4.50;3.93;;;14.60;99.90;;;;;;4936989;28;21207;-86
2022/10/02 08:36:15;;;;;;;4.97;3.60;;;14.50;99.90;;;;;;4942256;28;20221;-87
2022/10/02 08:38:44;;;;;;;3.73;2.50;;;14.60;99.90;;;;;;4940896;28;20462;-86
2022/10/02 08:41:40;;;;;;;4.67;2.57;;;14.60;99.90;;;;;;4941828;28;20438;-88
2022/10/02 08:44:43;;;;;;;5.10;2.67;;;14.60;99.90;;;;;;4936943;28;20507;-87
2022/10/02 08:47:36;;;;;;;10.53;3.10;;;14.70;99.90;;;;;;4941506;28;20901;-88
2022/10/02 08:50:37;;;;;;;5.53;2.47;;;14.90;99.90;;;;;;4943224;28;20521;-88
2022/10/02 08:53:41;;;;;;;5.30;2.47;;;14.90;99.90;;;;;;4945254;28;20593;-87
2022/10/02 08:56:43;;;;;;;5.20;2.43;;;14.70;99.90;;;;;;4946317;28;20450;-87
2022/10/02 08:59:32;;;;;;;6.20;3.23;;;14.70;99.90;;;;;;4953523;28;20450;-89
2022/10/02 09:02:28;;;;;;;4.53;2.67;;;14.80;99.90;;;;;;4936062;28;20435;-88
2022/10/02 09:05:29;;;;;;;2.97;2.00;;;15.20;99.90;;;;;;4950066;28;20490;-89
2022/10/02 09:08:22;;;;;;;8.93;2.60;;;15.50;99.90;;;;;;4951145;28;20438;-87
2022/10/02 09:11:19;;;;;;;3.07;2.73;;;15.90;99.90;;;;;;4952852;28;20452;-87
2022/10/02 09:14:15;;;;;;;3.90;2.67;;;16.50;99.90;;;;;;4958930;28;20563;-87
2022/10/02 09:17:15;;;;;;;4.63;2.60;;;17.00;99.90;;;;;;4949901;28;21541;-86
2022/10/02 09:20:14;;;;;;;5.77;2.57;;;17.40;99.90;;;;;;4950968;28;20871;-88
2022/10/02 09:23:15;;;;;;;5.23;3.00;;;17.40;99.90;;;;;;4930877;28;20553;-87
2022/10/02 09:25:52;;;;;;;4.53;3.00;;;17.90;99.90;;;;;;4927654;28;20481;-87
2022/10/02 09:28:46;;;;;;;5.50;2.73;;;17.90;99.90;;;;;;4928814;28;20438;-86
2022/10/02 09:31:41;;;;;;;2.60;2.40;;;17.90;99.90;;;;;;4922351;28;21710;-85
2022/10/02 09:34:52;;;;;;;4.77;2.77;;;17.90;99.90;;;;;;4930097;28;20975;-87
2022/10/02 09:37:36;;;;;;;4.30;2.80;;;17.50;99.90;;;;;;4932246;28;20437;-86
2022/10/02 09:40:13;;;;;;;3.30;2.67;;;17.80;99.90;;;;;;4926617;28;21086;-87
2022/10/02 09:43:00;;;;;;;2.53;2.07;;;18.00;99.90;;;;;;4929963;28;20457;-86
2022/10/02 09:46:11;;;;;;;2.97;2.20;;;17.70;99.90;;;;;;4938328;28;20478;-88
2022/10/02 09:49:18;;;;;;;3.33;2.50;;;17.60;99.90;;;;;;4924225;28;20445;-89
2022/10/02 09:52:07;;;;;;;2.60;1.70;;;17.70;99.90;;;;;;4929700;28;20442;-85
2022/10/02 09:54:54;;;;;;;1.53;1.10;;;17.80;99.90;;;;;;4931751;28;20458;-85
2022/10/02 09:57:56;;;;;;;2.80;0.90;;;17.90;99.90;;;;;;4927124;28;21196;-86
2022/10/02 10:00:25;;;;;;;1.13;1.03;;;17.90;99.90;;;;;;4929315;28;21071;-86
2022/10/02 10:03:09;;;;;;;1.17;0.80;;;18.30;99.90;;;;;;4931046;28;20457;-86
2022/10/02 10:06:32;;;;;;;1.10;1.00;;;18.40;99.90;;;;;;4924958;28;20475;-86
2022/10/02 10:09:34;;;;;;;1.70;0.80;;;18.40;99.90;;;;;;4921388;28;20438;-86
2022/10/02 10:12:28;;;;;;;2.60;1.00;;;18.40;99.90;;;;;;4930133;28;20507;-85
2022/10/02 10:15:22;;;;;;;0.50;0.50;;;18.50;99.90;;;;;;4931286;28;20450;-87
2022/10/02 10:18:16;;;;;;;0.80;0.70;;;18.40;99.90;;;;;;4951565;28;20494;-92
2022/10/02 10:20:53;;;;;;;0.80;0.47;;;18.50;99.90;;;;;;4978213;28;20485;-93
2022/10/02 10:23:59;;;;;;;1.77;0.80;;;18.30;99.90;;;;;;4963604;28;20445;-96
2022/10/02 10:26:46;;;;;;;1.33;0.50;;;18.20;99.90;;;;;;4940471;28;20489;-92
2022/10/02 10:29:41;;;;;;;0.73;0.73;;;18.10;99.90;;;;;;4941224;28;20504;-91
2022/10/02 10:32:37;;;;;;;0.53;0.53;;;18.10;99.90;;;;;;4941884;28;20489;-95
2022/10/02 10:35:22;;;;;;;0.30;0.30;;;18.30;99.90;;;;;;4944781;28;21180;-88
2022/10/02 10:41:08;;;;;;;1.70;0.50;;;18.60;99.90;;;;;;4937804;28;20545;-86
2022/10/02 10:44:06;;;;;;;2.60;2.40;;;18.50;99.90;;;;;;4942189;28;21047;-86
2022/10/02 10:46:50;;;;;;;5.90;3.00;;;17.90;99.90;;;;;;4934497;28;20446;-87
2022/10/02 10:50:06;;;;;;;3.33;3.00;;;17.50;99.90;;;;;;4932906;28;20452;-87
2022/10/02 10:52:56;;;;;;;3.87;2.90;;;17.20;99.90;;;;;;4938164;28;21387;-91
2022/10/02 10:55:50;;;;;;;3.40;2.23;;;17.00;99.90;;;;;;4932005;28;20944;-93
2022/10/02 10:58:43;;;;;;;3.27;2.37;;;16.90;99.90;;;;;;4942011;28;21010;-96
2022/10/02 11:01:12;;;;;;;3.00;2.50;;;16.80;99.90;;;;;;4949545;28;20484;-91
2022/10/02 11:03:58;;;;;;;3.13;2.60;;;16.80;99.90;;;;;;4932915;28;20513;-91
2022/10/02 11:06:37;;;;;;;2.00;1.90;;;16.90;99.90;;;;;;4945920;28;20605;-90
2022/10/02 11:09:29;;;;;;;2.60;2.40;;;17.00;99.90;;;;;;4955582;28;20481;-93
2022/10/02 11:12:12;;;;;;;2.53;2.33;;;16.90;99.90;;;;;;4945469;28;20442;-92
2022/10/02 11:14:45;;;;;;;5.10;2.43;;;16.90;99.90;;;;;;4940706;28;20451;-91
2022/10/02 11:17:47;;;;;;;2.93;2.23;;;17.10;99.90;;;;;;4960901;28;20446;-91
2022/10/02 11:20:15;;;;;;;5.20;2.27;;;17.20;99.90;;;;;;4932443;28;20452;-88
2022/10/02 11:22:49;;;;;;;4.77;2.43;;;17.10;99.90;;;;;;4930865;28;20963;-89
2022/10/02 11:26:13;;;;;;;3.97;2.77;;;17.10;99.90;;;;;;4939678;28;20482;-87
2022/10/02 11:28:51;;;;;;;9.07;7.90;;;16.80;99.90;;;;;;4883727;29;20454;-88
2022/10/02 11:31:22;;;;;;;49.03;44.73;;;16.20;99.90;;;;;;4904205;29;20969;-87
2022/10/02 11:34:18;;;;;;;3.77;3.47;;;16.00;99.90;;;;;;4914937;28;20445;-88
2022/10/02 11:37:08;;;;;;;3.40;2.90;;;15.80;99.90;;;;;;4935768;28;20504;-87
2022/10/02 11:40:00;;;;;;;3.70;3.17;;;15.90;99.90;;;;;;4940185;28;20442;-88
2022/10/02 11:42:51;;;;;;;3.67;2.73;;;16.00;99.90;;;;;;4936906;28;20469;-88
2022/10/02 11:45:59;;;;;;;3.27;3.07;;;15.80;99.90;;;;;;4939419;28;21006;-88
2022/10/02 11:48:49;;;;;;;3.17;2.87;;;15.40;99.90;;;;;;4939930;28;20542;-88
2022/10/02 11:51:50;;;;;;;3.87;3.57;;;15.30;99.90;;;;;;4940542;28;20457;-87
2022/10/02 11:54:27;;;;;;;4.33;3.93;;;15.10;99.90;;;;;;4944496;28;20450;-88
2022/10/02 11:57:07;;;;;;;4.13;3.83;;;15.00;99.90;;;;;;4939834;28;20455;-88
2022/10/02 11:59:52;;;;;;;3.90;3.60;;;14.90;99.90;;;;;;4953801;28;20850;-87
2022/10/02 12:02:34;;;;;;;3.83;3.50;;;14.70;99.90;;;;;;4940585;28;20490;-87
2022/10/02 12:05:44;;;;;;;3.20;3.00;;;14.70;99.90;;;;;;4940175;28;20866;-87
2022/10/02 12:08:55;;;;;;;2.70;2.60;;;14.70;99.90;;;;;;4931408;28;21085;-87
2022/10/02 12:11:40;;;;;;;2.87;2.70;;;14.60;99.90;;;;;;4931925;28;20453;-87
2022/10/02 12:14:25;;;;;;;3.27;3.07;;;14.50;99.90;;;;;;4937340;28;20449;-87
2022/10/02 12:17:25;;;;;;;3.07;2.77;;;14.40;99.90;;;;;;4938553;28;20453;-87
2022/10/02 12:29:30;;;;;;;3.13;2.93;;;14.40;99.90;;;;;;4940457;28;20461;-87
2022/10/02 12:32:27;;;;;;;4.10;3.90;;;14.40;99.90;;;;;;4951216;28;20441;-87
2022/10/02 12:35:04;;;;;;;4.13;3.80;;;14.40;99.90;;;;;;4942838;28;20450;-88
2022/10/02 12:37:51;;;;;;;4.30;4.00;;;14.40;99.90;;;;;;4940964;28;20525;-87
2022/10/02 12:40:36;;;;;;;3.17;2.97;;;14.20;99.90;;;;;;4944410;28;20453;-88
2022/10/02 12:43:42;;;;;;;3.30;3.10;;;14.20;99.90;;;;;;4942057;28;21044;-88
2022/10/02 12:46:38;;;;;;;2.80;2.60;;;14.20;99.90;;;;;;4909586;28;20919;-88
2022/10/02 12:49:46;;;;;;;3.07;2.87;;;14.20;99.90;;;;;;4936943;28;20541;-88
2022/10/02 12:52:30;;;;;;;3.50;3.30;;;14.40;99.90;;;;;;4944424;28;21672;-88
2022/10/02 12:55:18;;;;;;;2.00;1.90;;;14.40;99.90;;;;;;4944892;28;20800;-88
2022/10/02 12:58:09;;;;;;;2.37;2.27;;;14.40;99.90;;;;;;4944706;28;20441;-88
2022/10/02 13:01:05;;;;;;;1.90;1.80;;;14.40;99.90;;;;;;4939224;28;20461;-88
2022/10/02 13:03:58;;;;;;;1.90;1.80;;;14.30;99.90;;;;;;4942298;28;20824;-88
2022/10/02 13:06:47;;;;;;;1.67;1.57;;;14.30;99.90;;;;;;4938691;28;20496;-88
2022/10/02 13:09:22;;;;;;;1.20;1.20;;;14.20;99.90;;;;;;4939345;28;20669;-87
2022/10/02 13:12:01;;;;;;;1.20;0.93;;;14.00;99.90;;;;;;4941188;28;20469;-88
2022/10/02 13:14:40;;;;;;;1.60;1.50;;;14.00;99.90;;;;;;4942014;28;20438;-88
2022/10/02 13:17:49;;;;;;;2.30;2.20;;;13.90;99.90;;;;;;4941147;28;21036;-88
2022/10/02 13:20:25;;;;;;;1.37;1.27;;;13.80;99.90;;;;;;4956580;28;20465;-88
2022/10/02 13:23:20;;;;;;;1.07;1.07;;;13.70;99.90;;;;;;4942811;28;20446;-88
2022/10/02 13:25:58;;;;;;;2.27;1.90;;;13.70;99.90;;;;;;4914648;28;21259;-88
2022/10/02 13:28:32;;;;;;;1.50;1.40;;;13.70;99.90;;;;;;4943974;28;20543;-89
2022/10/02 13:31:24;;;;;;;1.70;1.60;;;13.70;99.90;;;;;;4940599;28;20454;-88
2022/10/02 13:34:16;;;;;;;3.03;2.83;;;13.70;99.90;;;;;;4942948;28;20445;-88
2022/10/02 13:37:00;;;;;;;1.73;1.63;;;13.80;99.90;;;;;;4944308;28;20946;-88
2022/10/02 13:39:54;;;;;;;1.13;1.10;;;13.90;99.90;;;;;;4942851;28;20450;-88
2022/10/02 13:42:51;;;;;;;1.70;1.60;;;14.20;99.90;;;;;;4955029;28;20785;-88
2022/10/02 13:45:41;;;;;;;1.50;1.40;;;14.40;99.90;;;;;;4944927;28;20747;-88
2022/10/02 13:48:23;;;;;;;1.37;1.27;;;14.40;99.90;;;;;;4944599;28;20544;-88
2022/10/02 13:51:17;;;;;;;1.20;1.13;;;14.50;99.90;;;;;;4943697;28;20446;-88
2022/10/02 13:54:01;;;;;;;0.70;0.70;;;14.80;99.90;;;;;;4947998;28;20490;-87
2022/10/02 13:56:27;;;;;;;0.70;0.70;;;15.00;99.90;;;;;;4942552;28;20437;-88
2022/10/02 13:59:16;;;;;;;0.87;0.70;;;15.10;99.90;;;;;;4944060;28;20466;-87
2022/10/02 14:02:09;;;;;;;0.87;0.63;;;15.10;99.90;;;;;;4940270;28;20450;-88
2022/10/02 14:04:53;;;;;;;0.50;0.50;;;14.90;99.90;;;;;;4958081;28;20467;-88
2022/10/02 14:07:42;;;;;;;0.70;0.70;;;15.10;99.90;;;;;;4942841;28;20955;-88
2022/10/02 14:10:39;;;;;;;1.20;1.20;;;15.10;99.90;;;;;;4934175;28;24337;-88
2022/10/02 14:13:43;;;;;;;0.70;0.70;;;15.40;99.90;;;;;;4940217;28;21116;-88
2022/10/02 14:16:19;;;;;;;0.90;0.90;;;15.40;99.90;;;;;;4937286;28;20445;-88
2022/10/02 14:18:50;;;;;;;0.90;0.70;;;15.30;99.90;;;;;;4958901;28;20451;-88
2022/10/02 14:21:30;;;;;;;1.13;0.70;;;15.10;99.90;;;;;;4941830;28;20524;-88
2022/10/02 14:24:21;;;;;;;2.97;0.67;;;15.00;99.90;;;;;;4940258;28;20450;-88
2022/10/02 14:27:12;;;;;;;1.90;1.80;;;14.80;99.90;;;;;;4938855;28;20819;-88
2022/10/02 14:29:53;;;;;;;0.70;0.70;;;14.50;99.90;;;;;;4945699;28;22128;-88